sensor_id;sensor_type;location;lat;lon;timestamp;P1;durP1;ratioP1;P2;durP2;ratioP2
10687;SDS011;5392;42.688;23.298;2023-05-21T00:01:54;10.85;;;9.88;;
10687;SDS011;5392;42.688;23.298;2023-05-21T00:04:21;10.93;;;10.02;;
10687;SDS011;5392;42.688;23.298;2023-05-21T00:06:48;11.40;;;10.30;;
10687;SDS011;5392;42.688;23.298;2023-05-21T00:09:16;11.73;;;10.65;;
10687;SDS011;5392;42.688;23.298;2023-05-21T00:11:42;10.50;;;9.63;;
10687;SDS011;5392;42.688;23.298;2023-05-21T00:14:09;11.93;;;10.43;;
10687;SDS011;5392;42.688;23.298;2023-05-21T00:16:36;12.45;;;11.25;;
10687;SDS011;5392;42.688;23.298;2023-05-21T00:19:02;13.13;;;11.73;;
10687;SDS011;5392;42.688;23.298;2023-05-21T00:21:29;13.82;;;12.52;;
10687;SDS011;5392;42.688;23.298;2023-05-21T00:23:56;14.77;;;12.20;;
10687;SDS011;5392;42.688;23.298;2023-05-21T00:26:24;15.30;;;12.75;;
10687;SDS011;5392;42.688;23.298;2023-05-21T00:28:50;13.63;;;12.27;;
10687;SDS011;5392;42.688;23.298;2023-05-21T00:31:17;16.15;;;14.27;;
10687;SDS011;5392;42.688;23.298;2023-05-21T00:33:44;15.55;;;13.88;;
10687;SDS011;5392;42.688;23.298;2023-05-21T00:36:10;16.77;;;14.70;;
10687;SDS011;5392;42.688;23.298;2023-05-21T00:38:40;16.05;;;14.25;;
10687;SDS011;5392;42.688;23.298;2023-05-21T00:41:09;15.88;;;14.32;;
10687;SDS011;5392;42.688;23.298;2023-05-21T00:43:37;16.33;;;14.73;;
10687;SDS011;5392;42.688;23.298;2023-05-21T00:46:07;18.55;;;13.68;;
10687;SDS011;5392;42.688;23.298;2023-05-21T00:48:42;16.20;;;14.52;;
10687;SDS011;5392;42.688;23.298;2023-05-21T00:51:11;15.40;;;13.80;;
10687;SDS011;5392;42.688;23.298;2023-05-21T00:53:40;15.80;;;14.35;;
10687;SDS011;5392;42.688;23.298;2023-05-21T00:56:07;15.38;;;13.80;;
10687;SDS011;5392;42.688;23.298;2023-05-21T00:58:34;17.50;;;14.85;;
10687;SDS011;5392;42.688;23.298;2023-05-21T01:01:01;14.73;;;13.23;;
10687;SDS011;5392;42.688;23.298;2023-05-21T01:03:29;13.85;;;12.52;;
10687;SDS011;5392;42.688;23.298;2023-05-21T01:05:56;15.98;;;14.40;;
10687;SDS011;5392;42.688;23.298;2023-05-21T01:08:25;14.02;;;12.82;;
10687;SDS011;5392;42.688;23.298;2023-05-21T01:10:54;16.38;;;13.90;;
10687;SDS011;5392;42.688;23.298;2023-05-21T01:13:21;16.30;;;14.70;;
10687;SDS011;5392;42.688;23.298;2023-05-21T01:15:50;15.98;;;14.35;;
10687;SDS011;5392;42.688;23.298;2023-05-21T01:18:19;17.35;;;15.75;;
10687;SDS011;5392;42.688;23.298;2023-05-21T01:20:46;17.05;;;15.25;;
10687;SDS011;5392;42.688;23.298;2023-05-21T01:23:17;16.42;;;14.25;;
10687;SDS011;5392;42.688;23.298;2023-05-21T01:25:45;13.10;;;11.93;;
10687;SDS011;5392;42.688;23.298;2023-05-21T01:28:12;13.95;;;12.57;;
10687;SDS011;5392;42.688;23.298;2023-05-21T01:30:40;14.30;;;12.52;;
10687;SDS011;5392;42.688;23.298;2023-05-21T01:33:12;12.38;;;11.10;;
10687;SDS011;5392;42.688;23.298;2023-05-21T01:35:59;14.43;;;12.98;;
10687;SDS011;5392;42.688;23.298;2023-05-21T01:41:11;12.25;;;11.15;;
10687;SDS011;5392;42.688;23.298;2023-05-21T01:43:40;13.18;;;11.75;;
10687;SDS011;5392;42.688;23.298;2023-05-21T01:46:10;10.82;;;9.93;;
10687;SDS011;5392;42.688;23.298;2023-05-21T01:48:42;10.82;;;9.90;;
10687;SDS011;5392;42.688;23.298;2023-05-21T01:51:09;10.40;;;9.45;;
10687;SDS011;5392;42.688;23.298;2023-05-21T01:53:37;10.32;;;9.35;;
10687;SDS011;5392;42.688;23.298;2023-05-21T01:56:06;9.57;;;8.77;;
10687;SDS011;5392;42.688;23.298;2023-05-21T01:58:33;10.15;;;9.15;;
10687;SDS011;5392;42.688;23.298;2023-05-21T02:01:00;9.82;;;9.02;;
10687;SDS011;5392;42.688;23.298;2023-05-21T02:03:28;9.90;;;9.10;;
10687;SDS011;5392;42.688;23.298;2023-05-21T02:05:56;9.32;;;8.45;;
10687;SDS011;5392;42.688;23.298;2023-05-21T02:08:23;9.65;;;8.75;;
10687;SDS011;5392;42.688;23.298;2023-05-21T02:10:50;9.90;;;8.88;;
10687;SDS011;5392;42.688;23.298;2023-05-21T02:13:17;8.93;;;8.30;;
10687;SDS011;5392;42.688;23.298;2023-05-21T02:15:51;9.45;;;8.65;;
10687;SDS011;5392;42.688;23.298;2023-05-21T02:18:20;11.20;;;8.88;;
10687;SDS011;5392;42.688;23.298;2023-05-21T02:20:47;9.43;;;8.52;;
10687;SDS011;5392;42.688;23.298;2023-05-21T02:23:15;9.25;;;8.30;;
10687;SDS011;5392;42.688;23.298;2023-05-21T02:25:42;8.80;;;8.00;;
10687;SDS011;5392;42.688;23.298;2023-05-21T02:28:09;11.32;;;8.40;;
10687;SDS011;5392;42.688;23.298;2023-05-21T02:30:35;11.30;;;8.95;;
10687;SDS011;5392;42.688;23.298;2023-05-21T02:33:02;10.77;;;9.85;;
10687;SDS011;5392;42.688;23.298;2023-05-21T02:35:29;9.02;;;8.45;;
10687;SDS011;5392;42.688;23.298;2023-05-21T02:37:56;10.20;;;9.20;;
10687;SDS011;5392;42.688;23.298;2023-05-21T02:40:24;10.38;;;8.80;;
10687;SDS011;5392;42.688;23.298;2023-05-21T02:42:51;9.63;;;8.82;;
10687;SDS011;5392;42.688;23.298;2023-05-21T02:45:18;10.15;;;9.20;;
10687;SDS011;5392;42.688;23.298;2023-05-21T02:47:44;11.75;;;10.15;;
10687;SDS011;5392;42.688;23.298;2023-05-21T02:50:12;11.23;;;10.02;;
10687;SDS011;5392;42.688;23.298;2023-05-21T02:52:39;11.25;;;10.23;;
10687;SDS011;5392;42.688;23.298;2023-05-21T02:55:07;11.52;;;10.35;;
10687;SDS011;5392;42.688;23.298;2023-05-21T02:57:34;12.73;;;11.48;;
10687;SDS011;5392;42.688;23.298;2023-05-21T03:00:01;12.27;;;10.43;;
10687;SDS011;5392;42.688;23.298;2023-05-21T03:02:29;11.13;;;10.23;;
10687;SDS011;5392;42.688;23.298;2023-05-21T03:04:55;12.00;;;10.80;;
10687;SDS011;5392;42.688;23.298;2023-05-21T03:07:22;10.73;;;9.82;;
10687;SDS011;5392;42.688;23.298;2023-05-21T03:09:49;12.00;;;10.82;;
10687;SDS011;5392;42.688;23.298;2023-05-21T03:12:16;12.60;;;11.38;;
10687;SDS011;5392;42.688;23.298;2023-05-21T03:14:42;10.48;;;9.55;;
10687;SDS011;5392;42.688;23.298;2023-05-21T03:17:11;13.45;;;10.77;;
10687;SDS011;5392;42.688;23.298;2023-05-21T03:19:42;9.10;;;8.30;;
10687;SDS011;5392;42.688;23.298;2023-05-21T03:22:10;12.13;;;9.65;;
10687;SDS011;5392;42.688;23.298;2023-05-21T03:24:37;9.63;;;8.82;;
10687;SDS011;5392;42.688;23.298;2023-05-21T03:27:04;10.55;;;9.57;;
10687;SDS011;5392;42.688;23.298;2023-05-21T03:29:34;14.07;;;10.43;;
10687;SDS011;5392;42.688;23.298;2023-05-21T03:32:01;10.93;;;9.43;;
10687;SDS011;5392;42.688;23.298;2023-05-21T03:34:28;12.57;;;9.95;;
10687;SDS011;5392;42.688;23.298;2023-05-21T03:36:55;15.25;;;11.60;;
10687;SDS011;5392;42.688;23.298;2023-05-21T03:39:22;11.63;;;10.50;;
10687;SDS011;5392;42.688;23.298;2023-05-21T03:41:49;12.05;;;10.90;;
10687;SDS011;5392;42.688;23.298;2023-05-21T03:44:16;15.50;;;11.40;;
10687;SDS011;5392;42.688;23.298;2023-05-21T03:46:43;11.38;;;10.20;;
10687;SDS011;5392;42.688;23.298;2023-05-21T03:49:10;14.95;;;10.75;;
10687;SDS011;5392;42.688;23.298;2023-05-21T03:51:37;12.05;;;10.65;;
10687;SDS011;5392;42.688;23.298;2023-05-21T03:54:04;12.57;;;10.10;;
10687;SDS011;5392;42.688;23.298;2023-05-21T03:56:31;10.50;;;9.32;;
10687;SDS011;5392;42.688;23.298;2023-05-21T03:58:58;11.02;;;9.32;;
10687;SDS011;5392;42.688;23.298;2023-05-21T04:01:25;11.35;;;10.25;;
10687;SDS011;5392;42.688;23.298;2023-05-21T04:03:53;9.93;;;8.98;;
10687;SDS011;5392;42.688;23.298;2023-05-21T04:06:20;11.63;;;9.68;;
10687;SDS011;5392;42.688;23.298;2023-05-21T04:08:48;10.43;;;9.32;;
10687;SDS011;5392;42.688;23.298;2023-05-21T04:11:15;10.52;;;9.60;;
10687;SDS011;5392;42.688;23.298;2023-05-21T04:13:42;13.68;;;10.32;;
10687;SDS011;5392;42.688;23.298;2023-05-21T04:16:08;18.65;;;10.77;;
10687;SDS011;5392;42.688;23.298;2023-05-21T04:18:35;16.33;;;12.00;;
10687;SDS011;5392;42.688;23.298;2023-05-21T04:21:02;11.98;;;10.75;;
10687;SDS011;5392;42.688;23.298;2023-05-21T04:23:29;23.98;;;10.88;;
10687;SDS011;5392;42.688;23.298;2023-05-21T04:25:56;17.92;;;11.07;;
10687;SDS011;5392;42.688;23.298;2023-05-21T04:28:23;19.00;;;11.25;;
10687;SDS011;5392;42.688;23.298;2023-05-21T04:30:54;17.42;;;11.65;;
10687;SDS011;5392;42.688;23.298;2023-05-21T04:33:21;12.25;;;10.65;;
10687;SDS011;5392;42.688;23.298;2023-05-21T04:35:51;12.40;;;9.95;;
10687;SDS011;5392;42.688;23.298;2023-05-21T04:38:19;17.48;;;11.98;;
10687;SDS011;5392;42.688;23.298;2023-05-21T04:40:46;14.48;;;10.95;;
10687;SDS011;5392;42.688;23.298;2023-05-21T04:43:16;10.68;;;9.73;;
10687;SDS011;5392;42.688;23.298;2023-05-21T04:45:44;10.00;;;9.00;;
10687;SDS011;5392;42.688;23.298;2023-05-21T04:48:11;13.13;;;8.88;;
10687;SDS011;5392;42.688;23.298;2023-05-21T04:50:37;9.93;;;7.78;;
10687;SDS011;5392;42.688;23.298;2023-05-21T04:53:06;10.63;;;8.98;;
10687;SDS011;5392;42.688;23.298;2023-05-21T04:55:33;14.90;;;8.90;;
10687;SDS011;5392;42.688;23.298;2023-05-21T04:58:05;14.88;;;7.80;;
10687;SDS011;5392;42.688;23.298;2023-05-21T05:00:33;19.85;;;8.50;;
10687;SDS011;5392;42.688;23.298;2023-05-21T05:02:59;9.27;;;7.18;;
10687;SDS011;5392;42.688;23.298;2023-05-21T05:05:26;9.77;;;7.10;;
10687;SDS011;5392;42.688;23.298;2023-05-21T05:07:53;13.00;;;7.57;;
10687;SDS011;5392;42.688;23.298;2023-05-21T05:10:19;9.07;;;7.57;;
10687;SDS011;5392;42.688;23.298;2023-05-21T05:12:47;8.20;;;7.30;;
10687;SDS011;5392;42.688;23.298;2023-05-21T05:15:14;8.60;;;7.00;;
10687;SDS011;5392;42.688;23.298;2023-05-21T05:17:41;9.05;;;7.00;;
10687;SDS011;5392;42.688;23.298;2023-05-21T05:20:08;7.43;;;6.93;;
10687;SDS011;5392;42.688;23.298;2023-05-21T05:22:35;9.95;;;7.28;;
10687;SDS011;5392;42.688;23.298;2023-05-21T05:25:02;10.73;;;7.88;;
10687;SDS011;5392;42.688;23.298;2023-05-21T05:27:29;12.90;;;7.80;;
10687;SDS011;5392;42.688;23.298;2023-05-21T05:29:56;7.47;;;6.65;;
10687;SDS011;5392;42.688;23.298;2023-05-21T05:32:22;7.82;;;5.82;;
10687;SDS011;5392;42.688;23.298;2023-05-21T05:35:07;9.02;;;6.30;;
10687;SDS011;5392;42.688;23.298;2023-05-21T05:37:34;8.13;;;5.75;;
10687;SDS011;5392;42.688;23.298;2023-05-21T05:40:00;6.03;;;5.50;;
10687;SDS011;5392;42.688;23.298;2023-05-21T05:42:27;6.90;;;5.53;;
10687;SDS011;5392;42.688;23.298;2023-05-21T05:44:54;6.40;;;5.32;;
10687;SDS011;5392;42.688;23.298;2023-05-21T05:47:21;10.45;;;6.15;;
10687;SDS011;5392;42.688;23.298;2023-05-21T05:49:48;6.72;;;5.57;;
10687;SDS011;5392;42.688;23.298;2023-05-21T05:52:14;6.97;;;5.47;;
10687;SDS011;5392;42.688;23.298;2023-05-21T05:54:41;8.88;;;5.78;;
10687;SDS011;5392;42.688;23.298;2023-05-21T05:57:08;5.65;;;4.68;;
10687;SDS011;5392;42.688;23.298;2023-05-21T05:59:35;5.10;;;4.75;;
10687;SDS011;5392;42.688;23.298;2023-05-21T06:02:02;5.78;;;5.15;;
10687;SDS011;5392;42.688;23.298;2023-05-21T06:04:28;4.97;;;4.53;;
10687;SDS011;5392;42.688;23.298;2023-05-21T06:06:55;4.63;;;4.10;;
10687;SDS011;5392;42.688;23.298;2023-05-21T06:09:23;3.67;;;3.47;;
10687;SDS011;5392;42.688;23.298;2023-05-21T06:11:50;4.90;;;3.17;;
10687;SDS011;5392;42.688;23.298;2023-05-21T06:14:16;7.32;;;4.22;;
10687;SDS011;5392;42.688;23.298;2023-05-21T06:16:43;5.93;;;3.60;;
10687;SDS011;5392;42.688;23.298;2023-05-21T06:19:10;5.72;;;4.30;;
10687;SDS011;5392;42.688;23.298;2023-05-21T06:21:37;2.70;;;2.50;;
10687;SDS011;5392;42.688;23.298;2023-05-21T06:24:04;6.03;;;2.40;;
10687;SDS011;5392;42.688;23.298;2023-05-21T06:26:31;3.47;;;2.70;;
10687;SDS011;5392;42.688;23.298;2023-05-21T06:28:58;4.75;;;2.35;;
10687;SDS011;5392;42.688;23.298;2023-05-21T06:31:24;2.70;;;2.50;;
10687;SDS011;5392;42.688;23.298;2023-05-21T06:33:51;3.35;;;1.88;;
10687;SDS011;5392;42.688;23.298;2023-05-21T06:36:18;3.00;;;1.80;;
10687;SDS011;5392;42.688;23.298;2023-05-21T06:38:45;2.90;;;2.70;;
10687;SDS011;5392;42.688;23.298;2023-05-21T06:41:13;3.45;;;2.40;;
10687;SDS011;5392;42.688;23.298;2023-05-21T06:43:39;3.25;;;2.38;;
10687;SDS011;5392;42.688;23.298;2023-05-21T06:46:07;3.45;;;2.67;;
10687;SDS011;5392;42.688;23.298;2023-05-21T06:48:34;2.75;;;1.90;;
10687;SDS011;5392;42.688;23.298;2023-05-21T06:51:01;4.63;;;2.75;;
10687;SDS011;5392;42.688;23.298;2023-05-21T06:53:28;8.07;;;2.33;;
10687;SDS011;5392;42.688;23.298;2023-05-21T06:55:54;4.15;;;2.60;;
10687;SDS011;5392;42.688;23.298;2023-05-21T06:58:21;6.32;;;2.80;;
10687;SDS011;5392;42.688;23.298;2023-05-21T07:00:51;6.28;;;2.90;;
10687;SDS011;5392;42.688;23.298;2023-05-21T07:03:18;5.05;;;2.63;;
10687;SDS011;5392;42.688;23.298;2023-05-21T07:05:45;4.30;;;3.00;;
10687;SDS011;5392;42.688;23.298;2023-05-21T07:08:12;2.90;;;2.72;;
10687;SDS011;5392;42.688;23.298;2023-05-21T07:10:39;5.18;;;2.05;;
10687;SDS011;5392;42.688;23.298;2023-05-21T07:13:06;3.00;;;2.38;;
10687;SDS011;5392;42.688;23.298;2023-05-21T07:15:33;2.45;;;2.05;;
10687;SDS011;5392;42.688;23.298;2023-05-21T07:17:59;2.28;;;2.00;;
10687;SDS011;5392;42.688;23.298;2023-05-21T07:20:26;3.20;;;2.65;;
10687;SDS011;5392;42.688;23.298;2023-05-21T07:22:53;3.88;;;2.20;;
10687;SDS011;5392;42.688;23.298;2023-05-21T07:25:20;2.88;;;2.15;;
10687;SDS011;5392;42.688;23.298;2023-05-21T07:27:46;2.28;;;2.17;;
10687;SDS011;5392;42.688;23.298;2023-05-21T07:30:13;4.40;;;2.60;;
10687;SDS011;5392;42.688;23.298;2023-05-21T07:32:41;2.92;;;2.80;;
10687;SDS011;5392;42.688;23.298;2023-05-21T07:35:08;2.70;;;1.90;;
10687;SDS011;5392;42.688;23.298;2023-05-21T07:37:34;2.40;;;2.20;;
10687;SDS011;5392;42.688;23.298;2023-05-21T07:40:01;4.28;;;2.58;;
10687;SDS011;5392;42.688;23.298;2023-05-21T07:42:29;4.22;;;2.47;;
10687;SDS011;5392;42.688;23.298;2023-05-21T07:44:56;2.20;;;2.00;;
10687;SDS011;5392;42.688;23.298;2023-05-21T07:47:23;1.80;;;1.70;;
10687;SDS011;5392;42.688;23.298;2023-05-21T07:49:50;2.15;;;1.65;;
10687;SDS011;5392;42.688;23.298;2023-05-21T07:52:16;5.38;;;2.20;;
10687;SDS011;5392;42.688;23.298;2023-05-21T07:54:43;4.43;;;2.75;;
10687;SDS011;5392;42.688;23.298;2023-05-21T07:57:10;3.15;;;2.30;;
10687;SDS011;5392;42.688;23.298;2023-05-21T07:59:37;3.17;;;2.58;;
10687;SDS011;5392;42.688;23.298;2023-05-21T08:02:04;1.90;;;1.70;;
10687;SDS011;5392;42.688;23.298;2023-05-21T08:04:31;3.35;;;1.23;;
10687;SDS011;5392;42.688;23.298;2023-05-21T08:06:58;1.27;;;0.82;;
10687;SDS011;5392;42.688;23.298;2023-05-21T08:09:25;23.90;;;2.67;;
10687;SDS011;5392;42.688;23.298;2023-05-21T08:11:51;2.03;;;1.00;;
10687;SDS011;5392;42.688;23.298;2023-05-21T08:14:18;2.83;;;0.95;;
10687;SDS011;5392;42.688;23.298;2023-05-21T08:16:45;12.73;;;1.40;;
10687;SDS011;5392;42.688;23.298;2023-05-21T08:19:12;4.32;;;0.85;;
10687;SDS011;5392;42.688;23.298;2023-05-21T08:21:38;2.33;;;0.82;;
10687;SDS011;5392;42.688;23.298;2023-05-21T08:24:05;6.15;;;0.70;;
10687;SDS011;5392;42.688;23.298;2023-05-21T08:26:32;4.72;;;0.73;;
10687;SDS011;5392;42.688;23.298;2023-05-21T08:28:59;3.80;;;1.15;;
10687;SDS011;5392;42.688;23.298;2023-05-21T08:31:26;5.45;;;0.80;;
10687;SDS011;5392;42.688;23.298;2023-05-21T08:33:53;2.92;;;0.60;;
10687;SDS011;5392;42.688;23.298;2023-05-21T08:36:23;1.98;;;1.08;;
10687;SDS011;5392;42.688;23.298;2023-05-21T08:38:50;0.75;;;0.60;;
10687;SDS011;5392;42.688;23.298;2023-05-21T08:41:17;2.95;;;0.90;;
10687;SDS011;5392;42.688;23.298;2023-05-21T08:43:50;0.93;;;0.80;;
10687;SDS011;5392;42.688;23.298;2023-05-21T08:46:23;1.05;;;0.73;;
10687;SDS011;5392;42.688;23.298;2023-05-21T08:48:51;4.10;;;0.90;;
10687;SDS011;5392;42.688;23.298;2023-05-21T08:51:21;1.05;;;0.75;;
10687;SDS011;5392;42.688;23.298;2023-05-21T08:53:48;3.30;;;0.70;;
10687;SDS011;5392;42.688;23.298;2023-05-21T08:56:16;0.80;;;0.80;;
10687;SDS011;5392;42.688;23.298;2023-05-21T08:58:44;5.55;;;1.10;;
10687;SDS011;5392;42.688;23.298;2023-05-21T09:01:12;1.77;;;0.77;;
10687;SDS011;5392;42.688;23.298;2023-05-21T09:03:39;1.25;;;0.68;;
10687;SDS011;5392;42.688;23.298;2023-05-21T09:06:08;2.75;;;0.93;;
10687;SDS011;5392;42.688;23.298;2023-05-21T09:08:37;1.95;;;0.68;;
10687;SDS011;5392;42.688;23.298;2023-05-21T09:11:09;4.53;;;1.00;;
10687;SDS011;5392;42.688;23.298;2023-05-21T09:13:39;4.82;;;0.85;;
10687;SDS011;5392;42.688;23.298;2023-05-21T09:16:09;19.48;;;2.15;;
10687;SDS011;5392;42.688;23.298;2023-05-21T09:18:36;5.22;;;0.95;;
10687;SDS011;5392;42.688;23.298;2023-05-21T09:21:21;3.17;;;0.75;;
10687;SDS011;5392;42.688;23.298;2023-05-21T09:23:53;2.55;;;0.70;;
10687;SDS011;5392;42.688;23.298;2023-05-21T09:26:21;2.13;;;0.70;;
10687;SDS011;5392;42.688;23.298;2023-05-21T09:28:49;2.25;;;1.10;;
10687;SDS011;5392;42.688;23.298;2023-05-21T09:31:17;7.80;;;1.02;;
10687;SDS011;5392;42.688;23.298;2023-05-21T09:33:46;4.28;;;0.80;;
10687;SDS011;5392;42.688;23.298;2023-05-21T09:36:13;4.68;;;1.52;;
10687;SDS011;5392;42.688;23.298;2023-05-21T09:38:40;2.22;;;1.55;;
10687;SDS011;5392;42.688;23.298;2023-05-21T09:41:07;2.13;;;1.30;;
10687;SDS011;5392;42.688;23.298;2023-05-21T09:43:34;7.43;;;1.40;;
10687;SDS011;5392;42.688;23.298;2023-05-21T09:46:02;1.00;;;0.80;;
10687;SDS011;5392;42.688;23.298;2023-05-21T09:48:33;5.47;;;0.75;;
10687;SDS011;5392;42.688;23.298;2023-05-21T09:53:43;3.72;;;0.80;;
10687;SDS011;5392;42.688;23.298;2023-05-21T09:56:14;1.52;;;0.60;;
10687;SDS011;5392;42.688;23.298;2023-05-21T09:58:42;1.25;;;0.70;;
10687;SDS011;5392;42.688;23.298;2023-05-21T10:01:09;1.48;;;0.80;;
10687;SDS011;5392;42.688;23.298;2023-05-21T10:03:37;2.55;;;0.70;;
10687;SDS011;5392;42.688;23.298;2023-05-21T10:06:07;4.75;;;0.68;;
10687;SDS011;5392;42.688;23.298;2023-05-21T10:08:35;1.90;;;0.60;;
10687;SDS011;5392;42.688;23.298;2023-05-21T10:11:05;1.27;;;0.63;;
10687;SDS011;5392;42.688;23.298;2023-05-21T10:13:33;5.10;;;1.15;;
10687;SDS011;5392;42.688;23.298;2023-05-21T10:16:05;2.97;;;0.80;;
10687;SDS011;5392;42.688;23.298;2023-05-21T10:18:32;3.75;;;0.70;;
10687;SDS011;5392;42.688;23.298;2023-05-21T10:21:00;5.50;;;0.93;;
10687;SDS011;5392;42.688;23.298;2023-05-21T10:23:28;4.68;;;0.70;;
10687;SDS011;5392;42.688;23.298;2023-05-21T10:25:55;2.55;;;0.80;;
10687;SDS011;5392;42.688;23.298;2023-05-21T10:28:23;3.70;;;0.90;;
10687;SDS011;5392;42.688;23.298;2023-05-21T10:30:51;2.50;;;1.05;;
10687;SDS011;5392;42.688;23.298;2023-05-21T10:33:19;1.20;;;0.70;;
10687;SDS011;5392;42.688;23.298;2023-05-21T10:35:50;1.65;;;0.90;;
10687;SDS011;5392;42.688;23.298;2023-05-21T10:38:18;1.70;;;0.70;;
10687;SDS011;5392;42.688;23.298;2023-05-21T10:40:46;2.25;;;0.80;;
10687;SDS011;5392;42.688;23.298;2023-05-21T11:00:28;1.60;;;0.80;;
10687;SDS011;5392;42.688;23.298;2023-05-21T11:02:57;2.60;;;1.10;;
10687;SDS011;5392;42.688;23.298;2023-05-21T11:06:11;2.95;;;0.90;;
10687;SDS011;5392;42.688;23.298;2023-05-21T11:10:53;5.03;;;1.17;;
10687;SDS011;5392;42.688;23.298;2023-05-21T11:13:24;2.80;;;0.93;;
10687;SDS011;5392;42.688;23.298;2023-05-21T11:21:13;2.13;;;1.00;;
10687;SDS011;5392;42.688;23.298;2023-05-21T11:26:18;3.15;;;0.90;;
10687;SDS011;5392;42.688;23.298;2023-05-21T11:29:00;5.20;;;1.52;;
10687;SDS011;5392;42.688;23.298;2023-05-21T11:31:33;1.60;;;0.88;;
10687;SDS011;5392;42.688;23.298;2023-05-21T11:36:43;4.28;;;1.23;;
10687;SDS011;5392;42.688;23.298;2023-05-21T11:39:14;4.15;;;1.10;;
10687;SDS011;5392;42.688;23.298;2023-05-21T11:41:52;1.77;;;1.00;;
10687;SDS011;5392;42.688;23.298;2023-05-21T11:44:38;3.10;;;1.02;;
10687;SDS011;5392;42.688;23.298;2023-05-21T11:47:06;3.05;;;1.00;;
10687;SDS011;5392;42.688;23.298;2023-05-21T11:49:35;3.90;;;1.35;;
10687;SDS011;5392;42.688;23.298;2023-05-21T11:52:03;2.60;;;0.75;;
10687;SDS011;5392;42.688;23.298;2023-05-21T11:54:31;3.28;;;0.90;;
10687;SDS011;5392;42.688;23.298;2023-05-21T11:57:04;1.73;;;1.00;;
10687;SDS011;5392;42.688;23.298;2023-05-21T11:59:35;3.85;;;1.10;;
10687;SDS011;5392;42.688;23.298;2023-05-21T12:02:02;5.03;;;0.98;;
10687;SDS011;5392;42.688;23.298;2023-05-21T12:04:30;0.73;;;0.70;;
10687;SDS011;5392;42.688;23.298;2023-05-21T12:07:02;1.73;;;0.88;;
10687;SDS011;5392;42.688;23.298;2023-05-21T12:09:29;4.18;;;1.52;;
10687;SDS011;5392;42.688;23.298;2023-05-21T12:11:55;1.65;;;1.35;;
10687;SDS011;5392;42.688;23.298;2023-05-21T12:14:22;3.80;;;0.90;;
10687;SDS011;5392;42.688;23.298;2023-05-21T12:16:49;3.45;;;1.20;;
10687;SDS011;5392;42.688;23.298;2023-05-21T12:19:16;3.78;;;1.42;;
10687;SDS011;5392;42.688;23.298;2023-05-21T12:21:44;4.10;;;1.02;;
10687;SDS011;5392;42.688;23.298;2023-05-21T12:24:11;5.47;;;1.42;;
10687;SDS011;5392;42.688;23.298;2023-05-21T12:26:38;3.80;;;1.50;;
10687;SDS011;5392;42.688;23.298;2023-05-21T12:29:07;2.28;;;1.33;;
10687;SDS011;5392;42.688;23.298;2023-05-21T12:31:36;2.92;;;1.10;;
10687;SDS011;5392;42.688;23.298;2023-05-21T12:34:13;4.13;;;1.42;;
10687;SDS011;5392;42.688;23.298;2023-05-21T12:36:43;4.05;;;1.20;;
10687;SDS011;5392;42.688;23.298;2023-05-21T12:39:18;4.53;;;1.30;;
10687;SDS011;5392;42.688;23.298;2023-05-21T12:41:45;3.97;;;1.17;;
10687;SDS011;5392;42.688;23.298;2023-05-21T12:44:12;2.38;;;1.40;;
10687;SDS011;5392;42.688;23.298;2023-05-21T12:46:39;3.53;;;1.10;;
10687;SDS011;5392;42.688;23.298;2023-05-21T12:49:06;1.83;;;1.10;;
10687;SDS011;5392;42.688;23.298;2023-05-21T12:51:37;2.45;;;1.00;;
10687;SDS011;5392;42.688;23.298;2023-05-21T12:54:10;4.50;;;1.23;;
10687;SDS011;5392;42.688;23.298;2023-05-21T12:56:44;5.00;;;1.27;;
10687;SDS011;5392;42.688;23.298;2023-05-21T12:59:11;0.95;;;0.90;;
10687;SDS011;5392;42.688;23.298;2023-05-21T13:01:40;1.85;;;1.20;;
10687;SDS011;5392;42.688;23.298;2023-05-21T13:04:07;2.60;;;1.10;;
10687;SDS011;5392;42.688;23.298;2023-05-21T13:06:43;1.27;;;1.02;;
10687;SDS011;5392;42.688;23.298;2023-05-21T13:09:11;2.65;;;1.35;;
10687;SDS011;5392;42.688;23.298;2023-05-21T13:11:38;2.35;;;1.58;;
10687;SDS011;5392;42.688;23.298;2023-05-21T13:14:05;1.58;;;1.42;;
10687;SDS011;5392;42.688;23.298;2023-05-21T13:16:32;7.53;;;2.15;;
10687;SDS011;5392;42.688;23.298;2023-05-21T13:18:59;3.53;;;1.67;;
10687;SDS011;5392;42.688;23.298;2023-05-21T13:21:26;2.40;;;2.15;;
10687;SDS011;5392;42.688;23.298;2023-05-21T13:23:52;1.63;;;1.42;;
10687;SDS011;5392;42.688;23.298;2023-05-21T13:26:19;3.42;;;1.08;;
10687;SDS011;5392;42.688;23.298;2023-05-21T13:28:46;4.88;;;1.27;;
10687;SDS011;5392;42.688;23.298;2023-05-21T13:31:13;4.75;;;1.25;;
10687;SDS011;5392;42.688;23.298;2023-05-21T13:33:41;3.40;;;1.77;;
10687;SDS011;5392;42.688;23.298;2023-05-21T13:36:08;1.85;;;1.30;;
10687;SDS011;5392;42.688;23.298;2023-05-21T13:38:35;2.47;;;1.63;;
10687;SDS011;5392;42.688;23.298;2023-05-21T13:41:01;6.95;;;1.70;;
10687;SDS011;5392;42.688;23.298;2023-05-21T13:43:28;2.42;;;1.55;;
10687;SDS011;5392;42.688;23.298;2023-05-21T13:45:55;1.08;;;1.02;;
10687;SDS011;5392;42.688;23.298;2023-05-21T13:48:22;3.85;;;1.40;;
10687;SDS011;5392;42.688;23.298;2023-05-21T13:50:49;5.03;;;1.20;;
10687;SDS011;5392;42.688;23.298;2023-05-21T13:53:16;2.97;;;1.30;;
10687;SDS011;5392;42.688;23.298;2023-05-21T13:55:42;4.05;;;1.23;;
10687;SDS011;5392;42.688;23.298;2023-05-21T13:58:09;1.33;;;1.00;;
10687;SDS011;5392;42.688;23.298;2023-05-21T14:00:36;3.67;;;1.00;;
10687;SDS011;5392;42.688;23.298;2023-05-21T14:03:03;5.20;;;1.20;;
10687;SDS011;5392;42.688;23.298;2023-05-21T14:05:33;3.65;;;1.17;;
10687;SDS011;5392;42.688;23.298;2023-05-21T14:07:59;7.03;;;1.10;;
10687;SDS011;5392;42.688;23.298;2023-05-21T14:10:26;2.60;;;1.20;;
10687;SDS011;5392;42.688;23.298;2023-05-21T14:12:53;2.15;;;1.00;;
10687;SDS011;5392;42.688;23.298;2023-05-21T14:15:32;2.30;;;0.90;;
10687;SDS011;5392;42.688;23.298;2023-05-21T14:17:59;3.30;;;1.05;;
10687;SDS011;5392;42.688;23.298;2023-05-21T14:20:26;4.75;;;1.20;;
10687;SDS011;5392;42.688;23.298;2023-05-21T14:22:53;1.77;;;1.15;;
10687;SDS011;5392;42.688;23.298;2023-05-21T14:25:20;1.45;;;1.10;;
10687;SDS011;5392;42.688;23.298;2023-05-21T14:27:47;1.10;;;1.00;;
10687;SDS011;5392;42.688;23.298;2023-05-21T14:30:13;2.63;;;0.88;;
10687;SDS011;5392;42.688;23.298;2023-05-21T14:32:40;1.48;;;1.08;;
10687;SDS011;5392;42.688;23.298;2023-05-21T14:35:07;3.53;;;1.10;;
10687;SDS011;5392;42.688;23.298;2023-05-21T14:37:34;3.10;;;0.90;;
10687;SDS011;5392;42.688;23.298;2023-05-21T14:40:01;1.25;;;0.95;;
10687;SDS011;5392;42.688;23.298;2023-05-21T14:42:28;2.97;;;1.27;;
10687;SDS011;5392;42.688;23.298;2023-05-21T14:44:56;3.22;;;1.52;;
10687;SDS011;5392;42.688;23.298;2023-05-21T14:47:26;6.32;;;1.23;;
10687;SDS011;5392;42.688;23.298;2023-05-21T14:49:54;5.80;;;1.33;;
10687;SDS011;5392;42.688;23.298;2023-05-21T14:52:20;1.48;;;1.00;;
10687;SDS011;5392;42.688;23.298;2023-05-21T14:54:47;2.28;;;1.20;;
10687;SDS011;5392;42.688;23.298;2023-05-21T14:57:14;1.85;;;1.25;;
10687;SDS011;5392;42.688;23.298;2023-05-21T14:59:42;3.72;;;1.17;;
10687;SDS011;5392;42.688;23.298;2023-05-21T15:02:08;6.63;;;1.10;;
10687;SDS011;5392;42.688;23.298;2023-05-21T15:04:36;3.05;;;1.25;;
10687;SDS011;5392;42.688;23.298;2023-05-21T15:07:03;4.85;;;1.70;;
10687;SDS011;5392;42.688;23.298;2023-05-21T15:09:30;1.75;;;1.60;;
10687;SDS011;5392;42.688;23.298;2023-05-21T15:11:56;4.38;;;2.08;;
10687;SDS011;5392;42.688;23.298;2023-05-21T15:14:23;2.25;;;1.77;;
10687;SDS011;5392;42.688;23.298;2023-05-21T15:16:50;7.13;;;2.20;;
10687;SDS011;5392;42.688;23.298;2023-05-21T15:19:18;3.33;;;1.73;;
10687;SDS011;5392;42.688;23.298;2023-05-21T15:21:44;6.13;;;2.50;;